Aviation Digital Data Service (ADDS)

Output produced by METARs form (0552 UTC 29 May 2017)
found at http://www.aviationweather.gov/adds/metars/
 
KSAV 290453Z AUTO 25003KT 10SM CLR 24/19 A2994 RMK AO2 SLP136 T02440194 403610200 $